Terminal Aerodrome Forecast
Issued by NWS

Home | Current Version | Previous Version | Text Only | Print | Product List | Glossary On
Versions: 1 2 3 4 5 6 7 8 9 10 11 12 13 14 15 16 17
000
FTUS41 KAKQ 162300 RRA
TAFPHF
TAF
KPHF 162342Z 1700/1724 04008KT P6SM SKC
     FM171200 06011G18KT P6SM SCT040
     FM171500 07014G20KT P6SM BKN040=

USA.gov is the U.S. government's official web portal to all federal, state and local government web resources and services.